createdAt,value
2022-11-03T00:02:26.867Z,32.10
2022-11-03T00:05:03.340Z,32.42
2022-11-03T00:07:29.997Z,33.65
2022-11-03T00:10:00.237Z,30.70
2022-11-03T00:12:30.129Z,32.17
2022-11-03T00:15:02.777Z,33.15
2022-11-03T00:17:31.337Z,34.13
2022-11-03T00:19:58.210Z,32.80
2022-11-03T00:22:32.127Z,33.15
2022-11-03T00:25:04.617Z,32.38
2022-11-03T00:27:31.570Z,31.58
2022-11-03T00:29:58.175Z,32.67
2022-11-03T00:32:24.843Z,31.85
2022-11-03T00:34:52.397Z,32.63
2022-11-03T00:37:19.032Z,32.80
2022-11-03T00:39:45.638Z,31.30
2022-11-03T00:42:17.761Z,31.88
2022-11-03T00:44:44.394Z,32.80
2022-11-03T00:47:11.084Z,34.88
2022-11-03T00:49:39.646Z,33.63
2022-11-03T00:52:11.349Z,32.58
2022-11-03T00:54:41.817Z,35.15
2022-11-03T00:57:17.255Z,37.85
2022-11-03T00:59:47.110Z,36.13
2022-11-03T01:02:13.967Z,36.53
2022-11-03T01:05:04.741Z,36.92
2022-11-03T01:07:31.558Z,37.13
2022-11-03T01:09:59.959Z,38.05
2022-11-03T01:12:27.909Z,37.42
2022-11-03T01:14:54.693Z,39.72
2022-11-03T01:17:34.311Z,38.40
2022-11-03T01:20:02.649Z,39.63
2022-11-03T01:22:30.609Z,37.78
2022-11-03T01:25:05.446Z,38.47
2022-11-03T01:27:35.169Z,40.00
2022-11-03T01:30:02.076Z,39.00
2022-11-03T01:32:29.686Z,37.58
2022-11-03T01:34:56.380Z,38.63
2022-11-03T01:37:27.143Z,38.75
2022-11-03T01:39:53.777Z,38.92
2022-11-03T01:42:20.504Z,38.72
2022-11-03T01:44:55.814Z,36.75
2022-11-03T01:47:35.313Z,38.83
2022-11-03T01:50:11.172Z,37.60
2022-11-03T01:52:58.699Z,38.00
2022-11-03T01:55:31.724Z,37.40
2022-11-03T01:58:02.959Z,35.92
2022-11-03T02:00:32.208Z,36.78
2022-11-03T02:03:00.141Z,37.45
2022-11-03T02:05:29.850Z,36.42
2022-11-03T02:08:14.259Z,37.92
2022-11-03T02:10:41.385Z,35.67
2022-11-03T02:13:19.759Z,37.22
2022-11-03T02:15:50.565Z,36.72
2022-11-03T02:18:23.935Z,36.83
2022-11-03T02:21:10.551Z,36.30
2022-11-03T02:24:15.068Z,35.05
2022-11-03T02:26:44.469Z,34.88
2022-11-03T02:29:12.450Z,37.75
2022-11-03T02:31:50.043Z,36.85
2022-11-03T02:34:31.602Z,37.40
2022-11-03T02:37:21.759Z,38.15
2022-11-03T02:39:58.512Z,38.90
2022-11-03T02:42:26.286Z,42.38
2022-11-03T02:45:01.085Z,43.08
2022-11-03T02:47:39.708Z,43.38
2022-11-03T02:50:10.612Z,41.35
2022-11-03T02:52:45.996Z,42.75
2022-11-03T02:55:45.877Z,43.83
2022-11-03T02:58:36.114Z,41.63
2022-11-03T03:01:15.276Z,44.88
2022-11-03T03:03:52.668Z,46.08
2022-11-03T03:06:38.168Z,43.97
2022-11-03T03:09:17.332Z,44.67
2022-11-03T03:11:51.208Z,46.70
2022-11-03T03:14:35.769Z,47.08
2022-11-03T03:17:37.472Z,48.85
2022-11-03T03:20:26.965Z,47.42
2022-11-03T03:23:30.174Z,47.35
2022-11-03T03:26:36.609Z,46.33
2022-11-03T03:29:22.163Z,49.83
2022-11-03T03:32:11.419Z,47.85
2022-11-03T03:34:44.702Z,49.00
2022-11-03T03:37:21.589Z,47.10
2022-11-03T03:40:07.049Z,46.55
2022-11-03T03:42:39.522Z,48.75
2022-11-03T03:45:08.662Z,44.65
2022-11-03T03:47:36.178Z,43.60
2022-11-03T03:50:07.718Z,45.67
2022-11-03T03:52:36.076Z,44.25
2022-11-03T03:55:06.826Z,46.70
2022-11-03T03:57:36.879Z,43.55
2022-11-03T04:00:10.315Z,46.17
2022-11-03T04:02:37.109Z,43.83
2022-11-03T04:05:04.305Z,45.40
2022-11-03T04:07:50.895Z,45.03
2022-11-03T04:10:19.927Z,45.03
2022-11-03T04:13:09.792Z,42.92
2022-11-03T04:15:59.193Z,42.63
2022-11-03T04:18:48.342Z,45.97
2022-11-03T04:21:38.834Z,46.17
2022-11-03T04:24:06.449Z,46.15
2022-11-03T04:26:33.209Z,42.95
2022-11-03T04:29:01.536Z,44.35
2022-11-03T04:31:45.024Z,43.50
2022-11-03T04:34:15.491Z,43.72
2022-11-03T04:36:42.071Z,46.05
2022-11-03T04:39:29.828Z,47.03
2022-11-03T04:42:10.612Z,45.95
2022-11-03T04:44:39.526Z,44.60
2022-11-03T04:47:13.632Z,46.33
2022-11-03T04:49:41.124Z,44.17
2022-11-03T04:52:19.031Z,44.55
2022-11-03T04:54:50.948Z,42.35
2022-11-03T04:57:27.283Z,43.90
2022-11-03T05:00:02.687Z,41.70
2022-11-03T05:02:41.724Z,42.60
2022-11-03T05:05:25.475Z,42.40
2022-11-03T05:08:08.728Z,41.17
2022-11-03T05:10:36.283Z,43.13
2022-11-03T05:13:03.128Z,41.55
2022-11-03T05:15:34.764Z,45.25
2022-11-03T05:18:22.549Z,41.92
2022-11-03T05:20:56.541Z,43.78
2022-11-03T05:23:27.145Z,42.38
2022-11-03T05:25:56.627Z,43.45
2022-11-03T05:28:39.042Z,43.75
2022-11-03T05:31:33.542Z,44.20
2022-11-03T05:34:23.270Z,43.35
2022-11-03T05:37:01.641Z,45.08
2022-11-03T05:39:46.464Z,44.80
2022-11-03T05:42:33.897Z,42.90
2022-11-03T05:45:24.909Z,44.10
2022-11-03T05:47:58.361Z,43.53
2022-11-03T05:50:28.164Z,43.67
2022-11-03T05:53:18.474Z,44.58
2022-11-03T05:55:48.515Z,44.90
2022-11-03T05:58:25.983Z,43.63
2022-11-03T06:00:53.466Z,45.33
2022-11-03T06:03:30.676Z,43.30
2022-11-03T06:06:02.464Z,47.65
2022-11-03T06:08:39.037Z,43.53
2022-11-03T06:11:15.814Z,44.15
2022-11-03T06:13:45.278Z,45.72
2022-11-03T06:16:22.271Z,44.17
2022-11-03T06:18:50.038Z,45.08
2022-11-03T06:21:24.650Z,44.45
2022-11-03T06:23:58.576Z,45.75
2022-11-03T06:26:33.512Z,45.00
2022-11-03T06:29:02.675Z,44.72
2022-11-03T06:31:37.340Z,44.22
2022-11-03T06:34:19.893Z,47.58
2022-11-03T06:36:57.333Z,45.30
2022-11-03T06:39:25.179Z,46.13
2022-11-03T06:41:55.809Z,44.97
2022-11-03T06:44:26.154Z,45.83
2022-11-03T06:47:07.991Z,47.72
2022-11-03T06:49:36.028Z,48.55
2022-11-03T06:52:23.606Z,46.10
2022-11-03T06:55:04.076Z,46.85
2022-11-03T06:57:35.362Z,45.33
2022-11-03T07:00:20.502Z,45.40
2022-11-03T07:02:56.292Z,45.63
2022-11-03T07:05:28.383Z,44.75
2022-11-03T07:07:59.795Z,45.72
2022-11-03T07:10:30.220Z,45.72
2022-11-03T07:13:07.434Z,47.28
2022-11-03T07:15:40.193Z,46.95
2022-11-03T07:18:29.729Z,51.20
2022-11-03T07:21:05.130Z,48.95
2022-11-03T07:23:31.922Z,49.00
2022-11-03T07:26:04.452Z,48.75
2022-11-03T07:28:38.958Z,47.90
2022-11-03T07:31:25.304Z,49.30
2022-11-03T07:33:58.629Z,49.97
2022-11-03T07:36:31.311Z,49.03
2022-11-03T07:39:04.611Z,49.13
2022-11-03T07:41:34.566Z,52.47
2022-11-03T07:44:02.299Z,50.80
2022-11-03T07:46:29.456Z,47.60
2022-11-03T07:49:04.122Z,49.70
2022-11-03T07:51:37.606Z,51.28
2022-11-03T07:54:21.308Z,49.15
2022-11-03T07:56:57.730Z,51.13
2022-11-03T07:59:38.809Z,51.83
2022-11-03T08:02:27.009Z,52.08
2022-11-03T08:04:58.915Z,52.72
2022-11-03T08:07:28.813Z,51.13
2022-11-03T08:09:56.111Z,50.78
2022-11-03T08:12:23.185Z,53.13
2022-11-03T08:14:50.055Z,52.80
2022-11-03T08:17:21.148Z,54.15
2022-11-03T08:19:48.041Z,54.28
2022-11-03T08:22:14.639Z,52.97
2022-11-03T08:24:41.328Z,53.70
2022-11-03T08:27:09.312Z,56.40
2022-11-03T08:29:37.979Z,56.63
2022-11-03T08:32:07.067Z,55.15
2022-11-03T08:34:44.469Z,54.92
2022-11-03T08:37:11.339Z,52.30
2022-11-03T08:39:40.301Z,56.60
2022-11-03T08:42:06.917Z,57.38
2022-11-03T08:44:33.494Z,54.92
2022-11-03T08:47:01.369Z,58.40
2022-11-03T08:49:28.678Z,59.20
2022-11-03T08:51:57.895Z,63.47
2022-11-03T08:54:24.686Z,59.70
2022-11-03T08:56:51.342Z,65.78
2022-11-03T08:59:20.810Z,63.28
2022-11-03T09:01:52.888Z,61.20
2022-11-03T09:04:19.792Z,64.78
2022-11-03T09:06:51.009Z,65.35
2022-11-03T09:12:07.113Z,67.03
2022-11-03T09:14:33.882Z,68.10
2022-11-03T09:19:28.214Z,68.85
2022-11-03T09:21:54.969Z,69.78
2022-11-03T09:24:29.332Z,68.47
2022-11-03T09:27:02.479Z,66.03
2022-11-03T09:29:51.567Z,69.75
2022-11-03T09:32:22.993Z,65.22
2022-11-03T09:34:55.266Z,69.18
2022-11-03T09:37:25.651Z,66.30
2022-11-03T09:39:52.551Z,66.13
2022-11-03T09:42:19.425Z,63.17
2022-11-03T09:44:50.471Z,62.28
2022-11-03T09:47:30.811Z,66.72
2022-11-03T09:49:58.872Z,65.10
2022-11-03T09:52:28.353Z,63.95
2022-11-03T09:54:57.126Z,68.28
2022-11-03T09:57:27.499Z,69.57
2022-11-03T10:00:02.353Z,67.00
2022-11-03T10:02:32.336Z,70.10
2022-11-03T10:05:10.985Z,68.70
2022-11-03T10:07:44.285Z,67.38
2022-11-03T10:10:20.610Z,67.63
2022-11-03T10:13:00.211Z,64.20
2022-11-03T10:15:30.137Z,66.72
2022-11-03T10:17:58.324Z,65.82
2022-11-03T10:20:25.111Z,62.65
2022-11-03T10:22:54.981Z,62.22
2022-11-03T10:25:38.952Z,57.72
2022-11-03T10:28:33.243Z,64.13
2022-11-03T10:31:26.442Z,66.20
2022-11-03T10:36:36.361Z,64.30
2022-11-03T10:39:31.356Z,60.10
2022-11-03T10:41:59.977Z,59.55
2022-11-03T10:44:34.056Z,60.65
2022-11-03T10:47:03.442Z,65.38
2022-11-03T10:49:42.435Z,63.22
2022-11-03T10:52:30.721Z,65.85
2022-11-03T10:54:59.776Z,61.70
2022-11-03T10:57:36.330Z,61.20
2022-11-03T11:00:04.134Z,60.20
2022-11-03T11:02:32.659Z,61.83
2022-11-03T11:05:02.335Z,61.08
2022-11-03T11:07:42.022Z,62.25
2022-11-03T11:10:20.201Z,69.18
2022-11-03T11:13:23.639Z,66.53
2022-11-03T11:15:54.315Z,63.97
2022-11-03T11:18:36.404Z,66.97
2022-11-03T11:21:30.774Z,68.45
2022-11-03T11:24:01.749Z,62.80
2022-11-03T11:26:47.299Z,63.88
2022-11-03T11:29:15.755Z,63.92
2022-11-03T11:31:43.675Z,60.45
2022-11-03T11:34:11.902Z,66.45
2022-11-03T11:36:50.375Z,62.78
2022-11-03T11:39:20.961Z,63.90
2022-11-03T11:42:14.196Z,60.90
2022-11-03T11:44:53.376Z,62.08
2022-11-03T11:47:23.190Z,62.67
2022-11-03T11:50:21.252Z,62.10
2022-11-03T11:52:58.436Z,60.55
2022-11-03T11:55:25.185Z,60.38
2022-11-03T11:57:53.637Z,58.10
2022-11-03T12:00:34.950Z,58.53
2022-11-03T12:05:38.975Z,60.65
2022-11-03T12:08:32.257Z,61.35
2022-11-03T12:11:04.836Z,62.88
2022-11-03T12:13:52.652Z,59.05
2022-11-03T12:16:41.169Z,58.08
2022-11-03T12:19:39.126Z,59.55
2022-11-03T12:22:09.288Z,59.92
2022-11-03T12:24:48.596Z,58.72
2022-11-03T12:27:24.764Z,59.55
2022-11-03T12:29:56.945Z,59.72
2022-11-03T12:32:33.949Z,58.85
2022-11-03T12:35:08.713Z,59.28
2022-11-03T12:37:41.202Z,58.08
2022-11-03T12:40:08.570Z,57.13
2022-11-03T12:42:35.387Z,56.60
2022-11-03T12:45:03.575Z,55.88
2022-11-03T12:47:33.649Z,58.97
2022-11-03T12:50:03.307Z,57.72
2022-11-03T12:52:31.617Z,57.25
2022-11-03T12:54:58.643Z,55.08
2022-11-03T12:57:25.527Z,59.13
2022-11-03T12:59:52.614Z,54.97
2022-11-03T13:02:19.642Z,55.42
2022-11-03T13:04:52.291Z,55.35
2022-11-03T13:07:24.983Z,55.55
2022-11-03T13:09:58.544Z,52.40
2022-11-03T13:12:35.308Z,52.60
2022-11-03T13:15:10.755Z,53.67
2022-11-03T13:17:59.691Z,49.50
2022-11-03T13:20:24.675Z,54.20
2022-11-03T13:22:51.663Z,55.25
2022-11-03T13:25:18.998Z,57.50
2022-11-03T13:27:49.137Z,55.75
2022-11-03T13:30:18.937Z,53.83
2022-11-03T13:32:48.564Z,49.88
2022-11-03T13:35:19.948Z,54.40
2022-11-03T13:37:46.891Z,51.20
2022-11-03T13:40:35.858Z,53.83
2022-11-03T13:43:01.670Z,51.53
2022-11-03T13:45:30.017Z,52.78
2022-11-03T13:48:52.485Z,53.05
2022-11-03T13:50:44.763Z,50.72
2022-11-03T13:56:05.266Z,55.92
2022-11-03T14:01:26.166Z,57.05
2022-11-03T14:06:40.409Z,55.53
2022-11-03T14:09:07.465Z,54.17
2022-11-03T14:11:55.808Z,54.10
2022-11-03T14:14:29.394Z,54.80
2022-11-03T14:16:57.014Z,53.10
2022-11-03T14:19:33.351Z,52.75
2022-11-03T14:22:06.433Z,53.47
2022-11-03T14:24:34.019Z,54.25
2022-11-03T14:27:02.359Z,51.15
2022-11-03T14:29:37.430Z,50.75
2022-11-03T14:32:05.675Z,54.05
2022-11-03T14:34:37.428Z,53.40
2022-11-03T14:37:06.769Z,54.65
2022-11-03T14:39:33.641Z,52.05
2022-11-03T14:42:04.255Z,53.88
2022-11-03T14:44:44.407Z,52.15
2022-11-03T14:47:13.368Z,51.25
2022-11-03T14:49:40.639Z,53.08
2022-11-03T14:52:07.974Z,55.10
2022-11-03T14:54:38.909Z,55.10
2022-11-03T14:57:06.199Z,54.75
2022-11-03T14:59:37.676Z,56.40
2022-11-03T15:02:06.197Z,55.72
2022-11-03T15:04:33.728Z,56.95
2022-11-03T15:07:07.220Z,55.92
2022-11-03T15:09:37.447Z,55.92
2022-11-03T15:12:05.563Z,59.25
2022-11-03T15:14:32.526Z,57.42
2022-11-03T15:17:03.477Z,56.10
2022-11-03T15:19:34.183Z,58.65
2022-11-03T15:22:04.902Z,55.10
2022-11-03T15:27:20.973Z,56.75
2022-11-03T15:29:47.841Z,55.35
2022-11-03T15:32:17.115Z,53.25
2022-11-03T15:34:44.016Z,53.65
2022-11-03T15:37:11.595Z,52.80
2022-11-03T15:39:42.115Z,53.90
2022-11-03T15:42:13.789Z,53.30
2022-11-03T15:47:10.488Z,51.70
2022-11-03T15:49:39.460Z,53.30
2022-11-03T15:52:06.792Z,51.97
2022-11-03T15:54:36.255Z,52.72
2022-11-03T15:57:09.932Z,52.33
2022-11-03T15:59:40.073Z,50.78
2022-11-03T16:02:14.238Z,50.08
2022-11-03T16:04:54.998Z,50.58
2022-11-03T16:07:33.498Z,51.83
2022-11-03T16:10:06.598Z,51.10
2022-11-03T16:12:41.895Z,50.72
2022-11-03T16:15:09.563Z,49.45
2022-11-03T16:17:39.112Z,49.75
2022-11-03T16:20:13.654Z,46.65
2022-11-03T16:22:40.675Z,45.33
2022-11-03T16:25:12.349Z,49.78
2022-11-03T16:27:43.575Z,49.38
2022-11-03T16:30:11.736Z,48.60
2022-11-03T16:32:38.421Z,50.10
2022-11-03T16:35:22.162Z,49.63
2022-11-03T16:37:52.032Z,50.42
2022-11-03T16:40:19.849Z,50.65
2022-11-03T16:42:49.161Z,52.10
2022-11-03T16:45:26.704Z,60.55
2022-11-03T16:47:55.780Z,52.63
2022-11-03T16:50:22.485Z,54.80
2022-11-03T16:52:51.042Z,50.28
2022-11-03T16:55:19.120Z,56.22
2022-11-03T16:57:50.028Z,55.08
2022-11-03T17:02:52.287Z,49.00
2022-11-03T17:05:21.029Z,51.40
2022-11-03T17:07:53.266Z,51.75
2022-11-03T17:10:23.162Z,49.15
2022-11-03T17:12:50.433Z,51.05
2022-11-03T17:15:21.348Z,48.72
2022-11-03T17:17:47.995Z,54.13
2022-11-03T17:20:16.356Z,53.05
2022-11-03T17:22:46.244Z,55.15
2022-11-03T17:25:15.822Z,57.40
2022-11-03T17:28:03.594Z,58.85
2022-11-03T17:30:35.135Z,54.83
2022-11-03T17:33:07.158Z,54.80
2022-11-03T17:35:42.342Z,58.25
2022-11-03T17:38:16.420Z,57.53
2022-11-03T17:40:46.166Z,61.60
2022-11-03T17:43:21.728Z,57.08
2022-11-03T17:45:49.134Z,62.33
2022-11-03T17:48:16.132Z,61.10
2022-11-03T17:50:46.963Z,59.05
2022-11-03T17:53:34.257Z,56.50
2022-11-03T17:58:52.432Z,63.83
2022-11-03T18:01:25.119Z,60.97
2022-11-03T18:03:59.593Z,63.15
2022-11-03T18:06:26.876Z,62.15
2022-11-03T18:08:56.142Z,60.72
2022-11-03T18:11:52.932Z,64.78
2022-11-03T18:14:20.660Z,62.78
2022-11-03T18:16:48.464Z,61.67
2022-11-03T18:19:17.167Z,65.20
2022-11-03T18:21:47.831Z,59.95
2022-11-03T18:24:24.955Z,66.35
2022-11-03T18:26:51.843Z,67.00
2022-11-03T18:29:19.493Z,65.57
2022-11-03T18:31:51.136Z,69.07
2022-11-03T18:36:55.398Z,69.10
2022-11-03T18:39:27.754Z,64.85
2022-11-03T18:42:03.312Z,68.68
2022-11-03T18:44:34.621Z,68.20
2022-11-03T18:47:01.700Z,71.63
2022-11-03T18:49:34.333Z,70.03
2022-11-03T18:52:10.648Z,69.32
2022-11-03T18:54:50.501Z,69.18
2022-11-03T18:57:26.661Z,73.35
2022-11-03T18:59:53.308Z,72.55
2022-11-03T19:02:23.129Z,73.47
2022-11-03T19:04:50.412Z,74.22
2022-11-03T19:07:29.903Z,77.15
2022-11-03T19:10:00.244Z,73.95
2022-11-03T19:12:30.597Z,70.90
2022-11-03T19:15:00.204Z,74.45
2022-11-03T19:17:30.790Z,73.03
2022-11-03T19:20:00.474Z,71.78
2022-11-03T19:22:27.122Z,75.63
2022-11-03T19:24:57.040Z,72.80
2022-11-03T19:27:31.334Z,72.88
2022-11-03T19:30:00.501Z,70.93
2022-11-03T19:32:31.740Z,75.85
2022-11-03T19:35:06.911Z,77.10
2022-11-03T19:37:36.097Z,72.00
2022-11-03T19:40:14.690Z,70.25
2022-11-03T19:42:41.471Z,73.78
2022-11-03T19:45:14.858Z,77.63
2022-11-03T19:48:10.725Z,73.88
2022-11-03T19:50:36.785Z,75.07
2022-11-03T19:53:06.218Z,76.32
2022-11-03T19:55:38.277Z,74.78
2022-11-03T19:58:18.167Z,72.60
2022-11-03T20:00:52.226Z,75.15
2022-11-03T20:03:23.232Z,74.40
2022-11-03T20:05:58.732Z,76.13
2022-11-03T20:08:29.046Z,73.72
2022-11-03T20:11:01.030Z,75.55
2022-11-03T20:13:40.980Z,78.28
2022-11-03T20:16:21.422Z,72.60
2022-11-03T20:18:49.079Z,77.50
2022-11-03T20:21:38.249Z,77.88
2022-11-03T20:24:07.959Z,70.93
2022-11-03T20:26:37.481Z,73.60
2022-11-03T20:29:12.291Z,75.15
2022-11-03T20:31:49.784Z,76.68
2022-11-03T20:34:18.827Z,79.97
2022-11-03T20:36:48.794Z,78.32
2022-11-03T20:39:18.784Z,79.35
2022-11-03T20:41:48.442Z,81.88
2022-11-03T20:44:30.251Z,76.43
2022-11-03T20:49:24.029Z,82.72
2022-11-03T20:51:58.288Z,80.20
2022-11-03T20:54:35.175Z,84.30
2022-11-03T20:57:03.904Z,80.85
2022-11-03T20:59:34.612Z,79.85
2022-11-03T21:02:10.708Z,80.28
2022-11-03T21:04:45.234Z,78.38
2022-11-03T21:07:13.690Z,75.43
2022-11-03T21:09:43.902Z,82.55
2022-11-03T21:12:13.946Z,75.72
2022-11-03T21:15:04.314Z,80.53
2022-11-03T21:17:54.525Z,82.63
2022-11-03T21:20:25.105Z,77.20
2022-11-03T21:22:55.194Z,81.50
2022-11-03T21:25:25.264Z,82.28
2022-11-03T21:27:54.232Z,83.45
2022-11-03T21:30:21.954Z,80.35
2022-11-03T21:32:48.793Z,81.30
2022-11-03T21:35:24.726Z,79.95
2022-11-03T21:37:52.407Z,78.22
2022-11-03T21:40:21.832Z,76.97
2022-11-03T21:43:09.873Z,72.22
2022-11-03T21:45:42.177Z,71.30
2022-11-03T21:48:28.398Z,71.50
2022-11-03T21:51:15.548Z,73.07
2022-11-03T21:53:42.292Z,72.95
2022-11-03T21:56:14.354Z,71.78
2022-11-03T21:58:42.864Z,71.47
2022-11-03T22:01:20.348Z,67.53
2022-11-03T22:03:47.946Z,71.50
2022-11-03T22:06:18.325Z,72.78
2022-11-03T22:08:45.122Z,71.70
2022-11-03T22:11:23.952Z,76.63
2022-11-03T22:13:58.985Z,75.45
2022-11-03T22:16:40.058Z,72.78
2022-11-03T22:19:30.005Z,74.88
2022-11-03T22:22:15.819Z,73.38
2022-11-03T22:25:03.971Z,74.13
2022-11-03T22:27:37.762Z,71.70
2022-11-03T22:30:24.134Z,71.20
2022-11-03T22:32:53.270Z,71.47
2022-11-03T22:35:39.776Z,69.78
2022-11-03T22:38:13.595Z,69.38
2022-11-03T22:40:59.859Z,74.40
2022-11-03T22:43:47.969Z,71.47
2022-11-03T22:46:18.507Z,72.45
2022-11-03T22:48:45.207Z,69.13
2022-11-03T22:51:18.606Z,69.95
2022-11-03T22:54:05.569Z,68.47
2022-11-03T22:56:32.693Z,67.28
2022-11-03T22:58:59.399Z,68.82
2022-11-03T23:01:32.387Z,74.05
2022-11-03T23:03:59.095Z,67.03
2022-11-03T23:06:27.697Z,63.47
2022-11-03T23:08:58.458Z,65.25
2022-11-03T23:11:35.834Z,67.60
2022-11-03T23:14:09.050Z,65.85
2022-11-03T23:16:43.966Z,64.50
2022-11-03T23:19:38.004Z,67.32
2022-11-03T23:22:06.054Z,65.43
2022-11-03T23:24:54.308Z,64.95
2022-11-03T23:27:21.026Z,68.72
2022-11-03T23:29:47.682Z,63.63
2022-11-03T23:32:14.452Z,66.85
2022-11-03T23:34:41.161Z,65.70
2022-11-03T23:37:07.976Z,61.78
2022-11-03T23:39:35.979Z,69.45
2022-11-03T23:42:06.124Z,66.45
2022-11-03T23:44:52.896Z,64.38
2022-11-03T23:47:43.682Z,65.05
2022-11-03T23:50:10.435Z,65.72
2022-11-03T23:52:37.254Z,63.38
2022-11-03T23:55:07.615Z,58.67
2022-11-03T23:57:52.901Z,62.33
